sensor_id;sensor_type;location;lat;lon;timestamp;P1;durP1;ratioP1;P2;durP2;ratioP2
5999;SDS011;3028;49.468;7.694;2023-02-08T00:01:13;12.70;;;11.40;;
5999;SDS011;3028;49.468;7.694;2023-02-08T00:03:16;12.50;;;11.37;;
5999;SDS011;3028;49.468;7.694;2023-02-08T00:05:18;10.27;;;9.27;;
5999;SDS011;3028;49.468;7.694;2023-02-08T00:07:20;10.07;;;9.13;;
5999;SDS011;3028;49.468;7.694;2023-02-08T00:09:21;13.97;;;10.90;;
5999;SDS011;3028;49.468;7.694;2023-02-08T00:11:23;10.80;;;9.70;;
5999;SDS011;3028;49.468;7.694;2023-02-08T00:13:25;15.10;;;9.83;;
5999;SDS011;3028;49.468;7.694;2023-02-08T00:15:26;11.20;;;8.10;;
5999;SDS011;3028;49.468;7.694;2023-02-08T00:17:28;10.73;;;9.57;;
5999;SDS011;3028;49.468;7.694;2023-02-08T00:19:30;9.33;;;8.50;;
5999;SDS011;3028;49.468;7.694;2023-02-08T00:21:31;10.73;;;9.63;;
5999;SDS011;3028;49.468;7.694;2023-02-08T00:23:33;9.57;;;8.73;;
5999;SDS011;3028;49.468;7.694;2023-02-08T00:25:35;10.13;;;8.80;;
5999;SDS011;3028;49.468;7.694;2023-02-08T00:27:37;10.10;;;9.20;;
5999;SDS011;3028;49.468;7.694;2023-02-08T00:29:38;7.30;;;6.67;;
5999;SDS011;3028;49.468;7.694;2023-02-08T00:31:40;11.90;;;8.43;;
5999;SDS011;3028;49.468;7.694;2023-02-08T00:33:42;8.57;;;7.87;;
5999;SDS011;3028;49.468;7.694;2023-02-08T00:35:44;9.10;;;8.23;;
5999;SDS011;3028;49.468;7.694;2023-02-08T00:37:45;9.43;;;8.63;;
5999;SDS011;3028;49.468;7.694;2023-02-08T00:39:47;7.67;;;7.03;;
5999;SDS011;3028;49.468;7.694;2023-02-08T00:41:49;10.70;;;7.93;;
5999;SDS011;3028;49.468;7.694;2023-02-08T00:43:50;8.17;;;7.53;;
5999;SDS011;3028;49.468;7.694;2023-02-08T00:45:53;10.70;;;8.20;;
5999;SDS011;3028;49.468;7.694;2023-02-08T00:47:58;10.10;;;9.17;;
5999;SDS011;3028;49.468;7.694;2023-02-08T00:50:00;9.33;;;8.53;;
5999;SDS011;3028;49.468;7.694;2023-02-08T00:52:02;16.77;;;8.20;;
5999;SDS011;3028;49.468;7.694;2023-02-08T00:54:03;8.00;;;7.20;;
5999;SDS011;3028;49.468;7.694;2023-02-08T00:56:06;9.33;;;8.07;;
5999;SDS011;3028;49.468;7.694;2023-02-08T00:58:08;21.63;;;8.73;;
5999;SDS011;3028;49.468;7.694;2023-02-08T01:00:10;8.17;;;7.40;;
5999;SDS011;3028;49.468;7.694;2023-02-08T01:02:12;7.13;;;6.37;;
5999;SDS011;3028;49.468;7.694;2023-02-08T01:04:14;8.67;;;7.13;;
5999;SDS011;3028;49.468;7.694;2023-02-08T01:06:16;9.23;;;8.33;;
5999;SDS011;3028;49.468;7.694;2023-02-08T01:08:18;10.80;;;9.70;;
5999;SDS011;3028;49.468;7.694;2023-02-08T01:10:22;10.03;;;9.10;;
5999;SDS011;3028;49.468;7.694;2023-02-08T01:12:24;8.23;;;7.53;;
5999;SDS011;3028;49.468;7.694;2023-02-08T01:14:26;9.23;;;8.37;;
5999;SDS011;3028;49.468;7.694;2023-02-08T01:16:29;9.90;;;7.57;;
5999;SDS011;3028;49.468;7.694;2023-02-08T01:18:32;11.60;;;10.53;;
5999;SDS011;3028;49.468;7.694;2023-02-08T01:20:34;8.60;;;7.80;;
5999;SDS011;3028;49.468;7.694;2023-02-08T01:22:37;8.27;;;7.50;;
5999;SDS011;3028;49.468;7.694;2023-02-08T01:24:39;9.07;;;8.17;;
5999;SDS011;3028;49.468;7.694;2023-02-08T01:26:40;8.27;;;7.47;;
5999;SDS011;3028;49.468;7.694;2023-02-08T01:28:42;9.13;;;7.23;;
5999;SDS011;3028;49.468;7.694;2023-02-08T01:30:44;12.07;;;7.13;;
5999;SDS011;3028;49.468;7.694;2023-02-08T01:32:46;9.23;;;7.80;;
5999;SDS011;3028;49.468;7.694;2023-02-08T01:34:47;8.93;;;8.17;;
5999;SDS011;3028;49.468;7.694;2023-02-08T01:36:49;8.70;;;7.87;;
5999;SDS011;3028;49.468;7.694;2023-02-08T01:38:51;9.20;;;8.40;;
5999;SDS011;3028;49.468;7.694;2023-02-08T01:40:52;9.17;;;8.30;;
5999;SDS011;3028;49.468;7.694;2023-02-08T01:42:54;8.60;;;7.70;;
5999;SDS011;3028;49.468;7.694;2023-02-08T01:47:15;12.57;;;8.57;;
5999;SDS011;3028;49.468;7.694;2023-02-08T01:49:28;8.27;;;7.50;;
5999;SDS011;3028;49.468;7.694;2023-02-08T01:51:32;7.03;;;6.53;;
5999;SDS011;3028;49.468;7.694;2023-02-08T01:53:36;10.53;;;8.97;;
5999;SDS011;3028;49.468;7.694;2023-02-08T01:55:39;7.50;;;6.80;;
5999;SDS011;3028;49.468;7.694;2023-02-08T01:57:44;8.30;;;7.57;;
5999;SDS011;3028;49.468;7.694;2023-02-08T01:59:51;8.10;;;7.23;;
5999;SDS011;3028;49.468;7.694;2023-02-08T02:02:06;8.33;;;7.63;;
5999;SDS011;3028;49.468;7.694;2023-02-08T02:04:11;8.20;;;7.50;;
5999;SDS011;3028;49.468;7.694;2023-02-08T02:06:17;9.67;;;8.30;;
5999;SDS011;3028;49.468;7.694;2023-02-08T02:08:25;8.90;;;8.10;;
5999;SDS011;3028;49.468;7.694;2023-02-08T02:10:28;7.87;;;7.20;;
5999;SDS011;3028;49.468;7.694;2023-02-08T02:12:32;10.57;;;7.97;;
5999;SDS011;3028;49.468;7.694;2023-02-08T02:14:35;9.03;;;8.33;;
5999;SDS011;3028;49.468;7.694;2023-02-08T02:16:37;9.27;;;7.93;;
5999;SDS011;3028;49.468;7.694;2023-02-08T02:18:39;8.90;;;7.60;;
5999;SDS011;3028;49.468;7.694;2023-02-08T02:42:14;12.33;;;7.23;;
5999;SDS011;3028;49.468;7.694;2023-02-08T02:44:43;9.90;;;7.73;;
5999;SDS011;3028;49.468;7.694;2023-02-08T02:46:51;10.57;;;7.63;;
5999;SDS011;3028;49.468;7.694;2023-02-08T02:49:03;10.83;;;8.87;;
5999;SDS011;3028;49.468;7.694;2023-02-08T02:51:09;10.27;;;9.43;;
5999;SDS011;3028;49.468;7.694;2023-02-08T02:53:23;9.53;;;8.77;;
5999;SDS011;3028;49.468;7.694;2023-02-08T02:55:31;7.10;;;6.40;;
5999;SDS011;3028;49.468;7.694;2023-02-08T02:57:34;8.70;;;8.03;;
5999;SDS011;3028;49.468;7.694;2023-02-08T02:59:36;9.20;;;8.33;;
5999;SDS011;3028;49.468;7.694;2023-02-08T03:01:41;10.43;;;9.43;;
5999;SDS011;3028;49.468;7.694;2023-02-08T03:03:43;8.57;;;7.33;;
5999;SDS011;3028;49.468;7.694;2023-02-08T03:05:46;14.47;;;8.23;;
5999;SDS011;3028;49.468;7.694;2023-02-08T03:21:11;9.77;;;8.97;;
5999;SDS011;3028;49.468;7.694;2023-02-08T03:23:35;9.23;;;8.53;;
5999;SDS011;3028;49.468;7.694;2023-02-08T03:28:06;9.13;;;7.53;;
5999;SDS011;3028;49.468;7.694;2023-02-08T03:30:14;8.77;;;7.87;;
5999;SDS011;3028;49.468;7.694;2023-02-08T03:32:19;11.47;;;8.27;;
5999;SDS011;3028;49.468;7.694;2023-02-08T03:36:31;8.07;;;7.27;;
5999;SDS011;3028;49.468;7.694;2023-02-08T03:38:38;7.17;;;6.53;;
5999;SDS011;3028;49.468;7.694;2023-02-08T03:40:43;10.20;;;8.57;;
5999;SDS011;3028;49.468;7.694;2023-02-08T03:42:46;8.00;;;7.40;;
5999;SDS011;3028;49.468;7.694;2023-02-08T03:44:56;9.37;;;8.53;;
5999;SDS011;3028;49.468;7.694;2023-02-08T03:47:11;8.07;;;7.27;;
5999;SDS011;3028;49.468;7.694;2023-02-08T03:49:17;8.87;;;7.97;;
5999;SDS011;3028;49.468;7.694;2023-02-08T03:51:22;10.20;;;8.53;;
5999;SDS011;3028;49.468;7.694;2023-02-08T03:53:25;8.63;;;7.83;;
5999;SDS011;3028;49.468;7.694;2023-02-08T03:55:28;9.03;;;8.23;;
5999;SDS011;3028;49.468;7.694;2023-02-08T03:57:32;10.73;;;9.17;;
5999;SDS011;3028;49.468;7.694;2023-02-08T03:59:41;8.13;;;6.67;;
5999;SDS011;3028;49.468;7.694;2023-02-08T04:01:45;8.43;;;7.73;;
5999;SDS011;3028;49.468;7.694;2023-02-08T04:03:49;11.33;;;8.20;;
5999;SDS011;3028;49.468;7.694;2023-02-08T04:05:54;8.97;;;8.20;;
5999;SDS011;3028;49.468;7.694;2023-02-08T04:07:56;9.87;;;8.97;;
5999;SDS011;3028;49.468;7.694;2023-02-08T04:09:57;7.83;;;7.13;;
5999;SDS011;3028;49.468;7.694;2023-02-08T04:11:59;10.17;;;6.53;;
5999;SDS011;3028;49.468;7.694;2023-02-08T04:14:01;8.10;;;7.37;;
5999;SDS011;3028;49.468;7.694;2023-02-08T04:16:02;8.73;;;7.97;;
5999;SDS011;3028;49.468;7.694;2023-02-08T04:18:04;8.60;;;7.77;;
5999;SDS011;3028;49.468;7.694;2023-02-08T04:20:06;8.73;;;8.00;;
5999;SDS011;3028;49.468;7.694;2023-02-08T04:22:08;9.57;;;8.67;;
5999;SDS011;3028;49.468;7.694;2023-02-08T04:24:10;8.63;;;7.97;;
5999;SDS011;3028;49.468;7.694;2023-02-08T04:26:12;9.53;;;8.63;;
5999;SDS011;3028;49.468;7.694;2023-02-08T04:28:13;10.77;;;8.40;;
5999;SDS011;3028;49.468;7.694;2023-02-08T04:30:15;8.40;;;7.63;;
5999;SDS011;3028;49.468;7.694;2023-02-08T04:32:17;10.73;;;8.43;;
5999;SDS011;3028;49.468;7.694;2023-02-08T04:34:19;11.77;;;6.93;;
5999;SDS011;3028;49.468;7.694;2023-02-08T04:36:20;7.90;;;7.20;;
5999;SDS011;3028;49.468;7.694;2023-02-08T04:38:22;6.83;;;6.27;;
5999;SDS011;3028;49.468;7.694;2023-02-08T04:40:24;8.77;;;7.33;;
5999;SDS011;3028;49.468;7.694;2023-02-08T04:42:26;9.63;;;8.77;;
5999;SDS011;3028;49.468;7.694;2023-02-08T04:44:27;8.97;;;8.27;;
5999;SDS011;3028;49.468;7.694;2023-02-08T04:46:31;12.20;;;10.93;;
5999;SDS011;3028;49.468;7.694;2023-02-08T04:48:33;11.33;;;10.27;;
5999;SDS011;3028;49.468;7.694;2023-02-08T04:50:34;11.27;;;9.87;;
5999;SDS011;3028;49.468;7.694;2023-02-08T04:52:36;14.63;;;10.17;;
5999;SDS011;3028;49.468;7.694;2023-02-08T04:54:38;13.97;;;9.03;;
5999;SDS011;3028;49.468;7.694;2023-02-08T04:56:41;11.50;;;10.37;;
5999;SDS011;3028;49.468;7.694;2023-02-08T04:58:42;10.73;;;9.63;;
5999;SDS011;3028;49.468;7.694;2023-02-08T05:00:44;11.03;;;9.83;;
5999;SDS011;3028;49.468;7.694;2023-02-08T05:02:46;10.60;;;9.63;;
5999;SDS011;3028;49.468;7.694;2023-02-08T05:04:48;11.57;;;10.57;;
5999;SDS011;3028;49.468;7.694;2023-02-08T05:06:49;11.10;;;10.07;;
5999;SDS011;3028;49.468;7.694;2023-02-08T05:08:51;10.10;;;9.10;;
5999;SDS011;3028;49.468;7.694;2023-02-08T05:10:53;10.00;;;8.93;;
5999;SDS011;3028;49.468;7.694;2023-02-08T05:12:54;10.93;;;10.03;;
5999;SDS011;3028;49.468;7.694;2023-02-08T05:14:56;13.87;;;8.77;;
5999;SDS011;3028;49.468;7.694;2023-02-08T05:16:58;10.47;;;9.63;;
5999;SDS011;3028;49.468;7.694;2023-02-08T05:18:59;13.77;;;9.70;;
5999;SDS011;3028;49.468;7.694;2023-02-08T05:21:01;8.60;;;7.90;;
5999;SDS011;3028;49.468;7.694;2023-02-08T05:23:04;9.77;;;8.97;;
5999;SDS011;3028;49.468;7.694;2023-02-08T05:25:06;10.57;;;9.57;;
5999;SDS011;3028;49.468;7.694;2023-02-08T05:27:08;8.27;;;7.47;;
5999;SDS011;3028;49.468;7.694;2023-02-08T05:29:10;9.13;;;7.77;;
5999;SDS011;3028;49.468;7.694;2023-02-08T05:31:13;8.37;;;7.67;;
5999;SDS011;3028;49.468;7.694;2023-02-08T05:33:15;7.07;;;6.57;;
5999;SDS011;3028;49.468;7.694;2023-02-08T05:35:17;8.20;;;7.53;;
5999;SDS011;3028;49.468;7.694;2023-02-08T05:37:19;8.03;;;7.33;;
5999;SDS011;3028;49.468;7.694;2023-02-08T05:39:21;8.10;;;7.40;;
5999;SDS011;3028;49.468;7.694;2023-02-08T05:41:22;6.47;;;5.97;;
5999;SDS011;3028;49.468;7.694;2023-02-08T05:43:24;7.83;;;6.87;;
5999;SDS011;3028;49.468;7.694;2023-02-08T05:45:25;8.67;;;7.87;;
5999;SDS011;3028;49.468;7.694;2023-02-08T05:47:27;8.87;;;7.23;;
5999;SDS011;3028;49.468;7.694;2023-02-08T05:49:29;8.27;;;7.07;;
5999;SDS011;3028;49.468;7.694;2023-02-08T05:51:31;7.77;;;7.07;;
5999;SDS011;3028;49.468;7.694;2023-02-08T05:53:32;10.77;;;9.67;;
5999;SDS011;3028;49.468;7.694;2023-02-08T05:55:34;8.37;;;7.63;;
5999;SDS011;3028;49.468;7.694;2023-02-08T05:57:36;8.17;;;6.97;;
5999;SDS011;3028;49.468;7.694;2023-02-08T05:59:37;7.33;;;6.63;;
5999;SDS011;3028;49.468;7.694;2023-02-08T06:01:39;9.00;;;8.30;;
5999;SDS011;3028;49.468;7.694;2023-02-08T06:03:41;7.60;;;6.90;;
5999;SDS011;3028;49.468;7.694;2023-02-08T06:05:43;7.70;;;7.07;;
5999;SDS011;3028;49.468;7.694;2023-02-08T06:07:44;8.67;;;8.07;;
5999;SDS011;3028;49.468;7.694;2023-02-08T06:09:46;9.13;;;8.33;;
5999;SDS011;3028;49.468;7.694;2023-02-08T06:11:48;7.90;;;7.23;;
5999;SDS011;3028;49.468;7.694;2023-02-08T06:13:50;8.40;;;7.70;;
5999;SDS011;3028;49.468;7.694;2023-02-08T06:15:52;8.80;;;8.10;;
5999;SDS011;3028;49.468;7.694;2023-02-08T06:17:54;9.97;;;9.00;;
5999;SDS011;3028;49.468;7.694;2023-02-08T06:19:56;8.17;;;7.57;;
5999;SDS011;3028;49.468;7.694;2023-02-08T06:21:57;11.37;;;7.80;;
5999;SDS011;3028;49.468;7.694;2023-02-08T06:23:59;7.63;;;7.07;;
5999;SDS011;3028;49.468;7.694;2023-02-08T06:26:01;8.43;;;7.70;;
5999;SDS011;3028;49.468;7.694;2023-02-08T06:28:02;9.93;;;8.90;;
5999;SDS011;3028;49.468;7.694;2023-02-08T06:30:04;9.47;;;8.67;;
5999;SDS011;3028;49.468;7.694;2023-02-08T06:32:06;10.07;;;9.13;;
5999;SDS011;3028;49.468;7.694;2023-02-08T06:34:08;8.50;;;7.83;;
5999;SDS011;3028;49.468;7.694;2023-02-08T06:36:10;11.70;;;8.50;;
5999;SDS011;3028;49.468;7.694;2023-02-08T06:38:12;11.50;;;9.47;;
5999;SDS011;3028;49.468;7.694;2023-02-08T06:40:17;10.30;;;7.20;;
5999;SDS011;3028;49.468;7.694;2023-02-08T06:42:19;11.53;;;8.90;;
5999;SDS011;3028;49.468;7.694;2023-02-08T06:44:21;8.17;;;7.57;;
5999;SDS011;3028;49.468;7.694;2023-02-08T06:46:23;9.80;;;8.80;;
5999;SDS011;3028;49.468;7.694;2023-02-08T06:48:24;9.73;;;8.87;;
5999;SDS011;3028;49.468;7.694;2023-02-08T06:50:26;9.20;;;8.43;;
5999;SDS011;3028;49.468;7.694;2023-02-08T06:52:28;10.10;;;8.63;;
5999;SDS011;3028;49.468;7.694;2023-02-08T06:54:30;8.10;;;7.50;;
5999;SDS011;3028;49.468;7.694;2023-02-08T06:56:34;9.87;;;7.67;;
5999;SDS011;3028;49.468;7.694;2023-02-08T06:58:36;7.50;;;6.23;;
5999;SDS011;3028;49.468;7.694;2023-02-08T07:00:41;8.60;;;7.70;;
5999;SDS011;3028;49.468;7.694;2023-02-08T07:02:48;8.60;;;7.17;;
5999;SDS011;3028;49.468;7.694;2023-02-08T07:04:51;8.87;;;8.10;;
5999;SDS011;3028;49.468;7.694;2023-02-08T07:06:53;10.93;;;10.03;;
5999;SDS011;3028;49.468;7.694;2023-02-08T07:08:55;9.57;;;8.70;;
5999;SDS011;3028;49.468;7.694;2023-02-08T07:11:04;8.80;;;8.13;;
5999;SDS011;3028;49.468;7.694;2023-02-08T07:13:07;9.97;;;9.07;;
5999;SDS011;3028;49.468;7.694;2023-02-08T07:15:09;8.83;;;8.23;;
5999;SDS011;3028;49.468;7.694;2023-02-08T07:17:13;9.63;;;8.73;;
5999;SDS011;3028;49.468;7.694;2023-02-08T07:19:15;8.97;;;8.07;;
5999;SDS011;3028;49.468;7.694;2023-02-08T07:21:17;7.67;;;7.03;;
5999;SDS011;3028;49.468;7.694;2023-02-08T07:23:18;8.17;;;7.50;;
5999;SDS011;3028;49.468;7.694;2023-02-08T07:25:20;9.33;;;8.10;;
5999;SDS011;3028;49.468;7.694;2023-02-08T07:27:22;13.80;;;7.93;;
5999;SDS011;3028;49.468;7.694;2023-02-08T07:29:27;9.30;;;8.07;;
5999;SDS011;3028;49.468;7.694;2023-02-08T07:31:30;9.80;;;8.80;;
5999;SDS011;3028;49.468;7.694;2023-02-08T07:33:31;9.90;;;8.90;;
5999;SDS011;3028;49.468;7.694;2023-02-08T07:35:33;8.93;;;8.13;;
5999;SDS011;3028;49.468;7.694;2023-02-08T07:37:35;10.03;;;9.23;;
5999;SDS011;3028;49.468;7.694;2023-02-08T07:39:36;8.47;;;7.67;;
5999;SDS011;3028;49.468;7.694;2023-02-08T07:41:39;9.27;;;8.47;;
5999;SDS011;3028;49.468;7.694;2023-02-08T07:43:41;9.80;;;8.43;;
5999;SDS011;3028;49.468;7.694;2023-02-08T07:45:43;8.43;;;7.73;;
5999;SDS011;3028;49.468;7.694;2023-02-08T07:49:54;7.60;;;7.00;;
5999;SDS011;3028;49.468;7.694;2023-02-08T07:51:56;8.93;;;8.13;;
5999;SDS011;3028;49.468;7.694;2023-02-08T07:53:57;10.53;;;9.57;;
5999;SDS011;3028;49.468;7.694;2023-02-08T07:55:59;8.23;;;7.53;;
5999;SDS011;3028;49.468;7.694;2023-02-08T07:58:01;8.67;;;7.87;;
5999;SDS011;3028;49.468;7.694;2023-02-08T08:00:03;9.43;;;8.57;;
5999;SDS011;3028;49.468;7.694;2023-02-08T08:02:04;7.90;;;7.10;;
5999;SDS011;3028;49.468;7.694;2023-02-08T08:04:06;9.73;;;8.77;;
5999;SDS011;3028;49.468;7.694;2023-02-08T08:06:08;8.30;;;7.27;;
5999;SDS011;3028;49.468;7.694;2023-02-08T08:08:10;10.60;;;7.67;;
5999;SDS011;3028;49.468;7.694;2023-02-08T08:10:12;7.23;;;6.67;;
5999;SDS011;3028;49.468;7.694;2023-02-08T08:12:14;10.23;;;9.33;;
5999;SDS011;3028;49.468;7.694;2023-02-08T08:14:16;7.97;;;7.30;;
5999;SDS011;3028;49.468;7.694;2023-02-08T08:16:18;7.77;;;7.17;;
5999;SDS011;3028;49.468;7.694;2023-02-08T08:18:20;6.63;;;6.03;;
5999;SDS011;3028;49.468;7.694;2023-02-08T08:20:22;8.07;;;7.10;;
5999;SDS011;3028;49.468;7.694;2023-02-08T08:22:24;8.23;;;7.33;;
5999;SDS011;3028;49.468;7.694;2023-02-08T08:24:25;6.60;;;5.93;;
5999;SDS011;3028;49.468;7.694;2023-02-08T08:26:27;7.67;;;6.47;;
5999;SDS011;3028;49.468;7.694;2023-02-08T08:28:30;7.32;;;6.63;;
5999;SDS011;3028;49.468;7.694;2023-02-08T08:30:31;7.10;;;6.40;;
5999;SDS011;3028;49.468;7.694;2023-02-08T08:32:33;7.60;;;6.80;;
5999;SDS011;3028;49.468;7.694;2023-02-08T08:34:35;6.60;;;6.07;;
5999;SDS011;3028;49.468;7.694;2023-02-08T08:36:36;7.53;;;6.93;;
5999;SDS011;3028;49.468;7.694;2023-02-08T08:38:38;6.22;;;5.68;;
5999;SDS011;3028;49.468;7.694;2023-02-08T08:40:41;7.40;;;6.80;;
5999;SDS011;3028;49.468;7.694;2023-02-08T08:42:43;6.20;;;5.70;;
5999;SDS011;3028;49.468;7.694;2023-02-08T08:44:45;7.15;;;6.53;;
5999;SDS011;3028;49.468;7.694;2023-02-08T08:46:47;6.72;;;6.07;;
5999;SDS011;3028;49.468;7.694;2023-02-08T08:48:48;7.53;;;6.18;;
5999;SDS011;3028;49.468;7.694;2023-02-08T08:50:52;6.00;;;5.40;;
5999;SDS011;3028;49.468;7.694;2023-02-08T08:52:55;6.93;;;6.25;;
5999;SDS011;3028;49.468;7.694;2023-02-08T08:54:56;5.63;;;5.05;;
5999;SDS011;3028;49.468;7.694;2023-02-08T08:56:58;8.18;;;5.43;;
5999;SDS011;3028;49.468;7.694;2023-02-08T08:59:00;7.03;;;5.53;;
5999;SDS011;3028;49.468;7.694;2023-02-08T09:01:02;6.15;;;5.65;;
5999;SDS011;3028;49.468;7.694;2023-02-08T09:03:04;6.50;;;5.85;;
5999;SDS011;3028;49.468;7.694;2023-02-08T09:05:05;5.97;;;4.72;;
5999;SDS011;3028;49.468;7.694;2023-02-08T09:07:08;6.70;;;6.13;;
5999;SDS011;3028;49.468;7.694;2023-02-08T09:09:10;6.95;;;6.28;;
5999;SDS011;3028;49.468;7.694;2023-02-08T09:11:13;6.38;;;5.78;;
5999;SDS011;3028;49.468;7.694;2023-02-08T09:13:16;5.03;;;4.63;;
5999;SDS011;3028;49.468;7.694;2023-02-08T09:15:22;6.57;;;4.82;;
5999;SDS011;3028;49.468;7.694;2023-02-08T09:17:23;4.68;;;4.28;;
5999;SDS011;3028;49.468;7.694;2023-02-08T09:19:25;6.38;;;4.82;;
5999;SDS011;3028;49.468;7.694;2023-02-08T09:21:28;7.13;;;6.03;;
5999;SDS011;3028;49.468;7.694;2023-02-08T09:23:29;6.55;;;5.32;;
5999;SDS011;3028;49.468;7.694;2023-02-08T09:25:31;5.90;;;5.40;;
5999;SDS011;3028;49.468;7.694;2023-02-08T09:27:34;5.20;;;4.65;;
5999;SDS011;3028;49.468;7.694;2023-02-08T09:29:35;5.45;;;4.70;;
5999;SDS011;3028;49.468;7.694;2023-02-08T09:31:37;6.57;;;5.13;;
5999;SDS011;3028;49.468;7.694;2023-02-08T09:33:40;6.03;;;5.43;;
5999;SDS011;3028;49.468;7.694;2023-02-08T09:35:41;5.78;;;4.63;;
5999;SDS011;3028;49.468;7.694;2023-02-08T09:37:44;5.95;;;5.40;;
5999;SDS011;3028;49.468;7.694;2023-02-08T09:39:45;5.65;;;5.05;;
5999;SDS011;3028;49.468;7.694;2023-02-08T09:41:52;4.93;;;4.35;;
5999;SDS011;3028;49.468;7.694;2023-02-08T09:46:18;6.40;;;4.97;;
5999;SDS011;3028;49.468;7.694;2023-02-08T09:48:25;6.85;;;5.28;;
5999;SDS011;3028;49.468;7.694;2023-02-08T09:50:36;4.53;;;4.15;;
5999;SDS011;3028;49.468;7.694;2023-02-08T09:54:55;5.75;;;4.65;;
5999;SDS011;3028;49.468;7.694;2023-02-08T09:57:00;4.70;;;4.28;;
5999;SDS011;3028;49.468;7.694;2023-02-08T09:59:19;5.65;;;5.15;;
5999;SDS011;3028;49.468;7.694;2023-02-08T10:01:35;4.80;;;3.45;;
5999;SDS011;3028;49.468;7.694;2023-02-08T10:03:41;5.38;;;4.60;;
5999;SDS011;3028;49.468;7.694;2023-02-08T10:05:45;4.85;;;4.38;;
5999;SDS011;3028;49.468;7.694;2023-02-08T10:07:47;5.35;;;4.85;;
5999;SDS011;3028;49.468;7.694;2023-02-08T10:09:49;5.82;;;3.65;;
5999;SDS011;3028;49.468;7.694;2023-02-08T10:29:23;4.72;;;4.30;;
5999;SDS011;3028;49.468;7.694;2023-02-08T10:33:57;4.25;;;3.85;;
5999;SDS011;3028;49.468;7.694;2023-02-08T10:36:02;5.18;;;4.78;;
5999;SDS011;3028;49.468;7.694;2023-02-08T10:40:35;6.45;;;5.95;;
5999;SDS011;3028;49.468;7.694;2023-02-08T10:42:38;5.07;;;4.45;;
5999;SDS011;3028;49.468;7.694;2023-02-08T10:47:12;5.13;;;4.47;;
5999;SDS011;3028;49.468;7.694;2023-02-08T10:49:26;27.40;;;4.78;;
5999;SDS011;3028;49.468;7.694;2023-02-08T10:51:35;4.65;;;3.78;;
5999;SDS011;3028;49.468;7.694;2023-02-08T10:53:37;5.53;;;3.30;;
5999;SDS011;3028;49.468;7.694;2023-02-08T10:55:38;5.47;;;4.90;;
5999;SDS011;3028;49.468;7.694;2023-02-08T10:57:42;5.55;;;4.88;;
5999;SDS011;3028;49.468;7.694;2023-02-08T11:00:10;5.25;;;4.75;;
5999;SDS011;3028;49.468;7.694;2023-02-08T11:02:22;4.43;;;3.85;;
5999;SDS011;3028;49.468;7.694;2023-02-08T11:04:27;4.55;;;4.05;;
5999;SDS011;3028;49.468;7.694;2023-02-08T11:06:29;4.43;;;4.03;;
5999;SDS011;3028;49.468;7.694;2023-02-08T11:08:31;4.40;;;4.00;;
5999;SDS011;3028;49.468;7.694;2023-02-08T11:10:36;5.20;;;3.90;;
5999;SDS011;3028;49.468;7.694;2023-02-08T11:12:39;6.13;;;5.47;;
5999;SDS011;3028;49.468;7.694;2023-02-08T11:14:41;4.60;;;4.18;;
5999;SDS011;3028;49.468;7.694;2023-02-08T11:16:52;5.05;;;4.57;;
5999;SDS011;3028;49.468;7.694;2023-02-08T11:18:57;9.13;;;3.83;;
5999;SDS011;3028;49.468;7.694;2023-02-08T11:21:05;4.95;;;4.38;;
5999;SDS011;3028;49.468;7.694;2023-02-08T11:23:18;5.07;;;4.22;;
5999;SDS011;3028;49.468;7.694;2023-02-08T11:25:33;3.92;;;3.63;;
5999;SDS011;3028;49.468;7.694;2023-02-08T11:27:37;5.25;;;4.75;;
5999;SDS011;3028;49.468;7.694;2023-02-08T11:29:45;4.93;;;4.13;;
5999;SDS011;3028;49.468;7.694;2023-02-08T11:33:59;5.57;;;5.07;;
5999;SDS011;3028;49.468;7.694;2023-02-08T11:36:05;4.97;;;4.57;;
5999;SDS011;3028;49.468;7.694;2023-02-08T11:38:14;5.00;;;4.50;;
5999;SDS011;3028;49.468;7.694;2023-02-08T11:40:22;6.65;;;5.30;;
5999;SDS011;3028;49.468;7.694;2023-02-08T11:42:44;5.40;;;4.30;;
5999;SDS011;3028;49.468;7.694;2023-02-08T11:44:47;6.00;;;5.40;;
5999;SDS011;3028;49.468;7.694;2023-02-08T11:46:49;4.72;;;4.20;;
5999;SDS011;3028;49.468;7.694;2023-02-08T11:48:52;6.78;;;4.70;;
5999;SDS011;3028;49.468;7.694;2023-02-08T11:50:56;4.90;;;4.18;;
5999;SDS011;3028;49.468;7.694;2023-02-08T11:53:00;5.22;;;4.50;;
5999;SDS011;3028;49.468;7.694;2023-02-08T11:57:15;4.72;;;4.25;;
5999;SDS011;3028;49.468;7.694;2023-02-08T11:59:20;10.13;;;3.88;;
5999;SDS011;3028;49.468;7.694;2023-02-08T12:01:56;5.00;;;3.95;;
5999;SDS011;3028;49.468;7.694;2023-02-08T12:03:51;5.10;;;4.70;;
5999;SDS011;3028;49.468;7.694;2023-02-08T12:08:13;4.22;;;3.83;;
5999;SDS011;3028;49.468;7.694;2023-02-08T12:10:28;5.43;;;4.88;;
5999;SDS011;3028;49.468;7.694;2023-02-08T12:15:01;4.43;;;4.03;;
5999;SDS011;3028;49.468;7.694;2023-02-08T12:22:17;3.78;;;3.40;;
5999;SDS011;3028;49.468;7.694;2023-02-08T12:26:33;4.82;;;4.32;;
5999;SDS011;3028;49.468;7.694;2023-02-08T12:31:00;5.78;;;4.45;;
5999;SDS011;3028;49.468;7.694;2023-02-08T12:43:35;4.28;;;3.70;;
5999;SDS011;3028;49.468;7.694;2023-02-08T12:48:35;5.43;;;4.22;;
5999;SDS011;3028;49.468;7.694;2023-02-08T12:50:48;4.82;;;4.22;;
5999;SDS011;3028;49.468;7.694;2023-02-08T12:52:59;4.68;;;3.80;;
5999;SDS011;3028;49.468;7.694;2023-02-08T12:57:18;3.80;;;3.35;;
5999;SDS011;3028;49.468;7.694;2023-02-08T12:59:40;4.53;;;3.95;;
5999;SDS011;3028;49.468;7.694;2023-02-08T13:01:45;3.60;;;3.33;;
5999;SDS011;3028;49.468;7.694;2023-02-08T13:04:03;3.85;;;3.50;;
5999;SDS011;3028;49.468;7.694;2023-02-08T13:06:11;3.80;;;3.50;;
5999;SDS011;3028;49.468;7.694;2023-02-08T13:10:32;5.60;;;4.30;;
5999;SDS011;3028;49.468;7.694;2023-02-08T13:12:38;4.22;;;3.80;;
5999;SDS011;3028;49.468;7.694;2023-02-08T13:14:49;4.35;;;3.92;;
5999;SDS011;3028;49.468;7.694;2023-02-08T13:16:53;3.80;;;3.30;;
5999;SDS011;3028;49.468;7.694;2023-02-08T13:22:00;4.05;;;3.65;;
5999;SDS011;3028;49.468;7.694;2023-02-08T13:24:05;5.43;;;4.03;;
5999;SDS011;3028;49.468;7.694;2023-02-08T13:26:26;4.60;;;4.20;;
5999;SDS011;3028;49.468;7.694;2023-02-08T13:28:28;6.55;;;3.88;;
5999;SDS011;3028;49.468;7.694;2023-02-08T13:30:31;5.32;;;2.88;;
5999;SDS011;3028;49.468;7.694;2023-02-08T13:32:35;5.03;;;4.53;;
5999;SDS011;3028;49.468;7.694;2023-02-08T13:34:45;5.22;;;4.72;;
5999;SDS011;3028;49.468;7.694;2023-02-08T13:36:54;4.28;;;3.88;;
5999;SDS011;3028;49.468;7.694;2023-02-08T13:39:00;5.57;;;3.95;;
5999;SDS011;3028;49.468;7.694;2023-02-08T13:41:12;4.63;;;4.15;;
5999;SDS011;3028;49.468;7.694;2023-02-08T13:43:27;4.75;;;4.07;;
5999;SDS011;3028;49.468;7.694;2023-02-08T13:45:43;4.45;;;4.05;;
5999;SDS011;3028;49.468;7.694;2023-02-08T13:47:46;4.13;;;3.60;;
5999;SDS011;3028;49.468;7.694;2023-02-08T13:51:53;3.95;;;3.25;;
5999;SDS011;3028;49.468;7.694;2023-02-08T13:55:57;4.80;;;3.75;;
5999;SDS011;3028;49.468;7.694;2023-02-08T14:00:21;3.45;;;3.15;;
5999;SDS011;3028;49.468;7.694;2023-02-08T14:02:27;5.22;;;4.57;;
5999;SDS011;3028;49.468;7.694;2023-02-08T14:04:31;3.45;;;3.15;;
5999;SDS011;3028;49.468;7.694;2023-02-08T14:06:44;6.20;;;4.20;;
5999;SDS011;3028;49.468;7.694;2023-02-08T14:08:52;4.45;;;4.13;;
5999;SDS011;3028;49.468;7.694;2023-02-08T14:13:35;4.53;;;4.13;;
5999;SDS011;3028;49.468;7.694;2023-02-08T14:15:40;4.88;;;4.47;;
5999;SDS011;3028;49.468;7.694;2023-02-08T14:17:44;5.45;;;4.60;;
5999;SDS011;3028;49.468;7.694;2023-02-08T14:19:57;4.60;;;4.15;;
5999;SDS011;3028;49.468;7.694;2023-02-08T14:26:22;4.22;;;3.92;;
5999;SDS011;3028;49.468;7.694;2023-02-08T14:30:36;5.00;;;4.20;;
5999;SDS011;3028;49.468;7.694;2023-02-08T14:32:39;4.70;;;4.30;;
5999;SDS011;3028;49.468;7.694;2023-02-08T14:34:43;5.60;;;4.43;;
5999;SDS011;3028;49.468;7.694;2023-02-08T14:36:45;5.15;;;3.88;;
5999;SDS011;3028;49.468;7.694;2023-02-08T14:40:56;4.53;;;3.85;;
5999;SDS011;3028;49.468;7.694;2023-02-08T14:43:42;5.45;;;3.70;;
5999;SDS011;3028;49.468;7.694;2023-02-08T14:45:35;6.00;;;5.40;;
5999;SDS011;3028;49.468;7.694;2023-02-08T14:49:41;5.28;;;4.78;;
5999;SDS011;3028;49.468;7.694;2023-02-08T14:51:45;5.68;;;4.88;;
5999;SDS011;3028;49.468;7.694;2023-02-08T14:53:54;6.97;;;5.65;;
5999;SDS011;3028;49.468;7.694;2023-02-08T14:58:25;6.57;;;5.88;;
5999;SDS011;3028;49.468;7.694;2023-02-08T15:00:31;6.97;;;5.22;;
5999;SDS011;3028;49.468;7.694;2023-02-08T15:02:35;5.95;;;5.38;;
5999;SDS011;3028;49.468;7.694;2023-02-08T15:04:42;5.68;;;4.68;;